sensor_id;sensor_type;location;lat;lon;timestamp;pressure;altitude;pressure_sealevel;temperature;humidity
21803;BME280;18591;47.080;22.214;2023-12-07T00:00:18;99463.78;;;6.53;58.97
21803;BME280;18591;47.080;22.214;2023-12-07T00:02:21;99463.75;;;6.55;59.02
21803;BME280;18591;47.080;22.214;2023-12-07T00:04:24;99469.19;;;6.50;59.04
21803;BME280;18591;47.080;22.214;2023-12-07T00:06:26;99467.41;;;6.51;59.02
21803;BME280;18591;47.080;22.214;2023-12-07T00:08:28;99462.13;;;6.48;59.06
21803;BME280;18591;47.080;22.214;2023-12-07T00:10:30;99467.56;;;6.45;58.97
21803;BME280;18591;47.080;22.214;2023-12-07T00:12:33;99467.56;;;6.43;59.32
21803;BME280;18591;47.080;22.214;2023-12-07T00:14:35;99469.38;;;6.43;59.45
21803;BME280;18591;47.080;22.214;2023-12-07T00:16:38;99466.78;;;6.38;59.62
21803;BME280;18591;47.080;22.214;2023-12-07T00:18:40;99470.41;;;6.36;59.25
21803;BME280;18591;47.080;22.214;2023-12-07T00:20:43;99473.16;;;6.32;59.78
21803;BME280;18591;47.080;22.214;2023-12-07T00:22:45;99471.34;;;6.33;59.64
21803;BME280;18591;47.080;22.214;2023-12-07T00:24:48;99466.81;;;6.37;59.41
21803;BME280;18591;47.080;22.214;2023-12-07T00:26:50;99473.94;;;6.36;59.87
21803;BME280;18591;47.080;22.214;2023-12-07T00:28:52;99476.53;;;6.41;59.83
21803;BME280;18591;47.080;22.214;2023-12-07T00:30:55;99471.34;;;6.35;59.58
21803;BME280;18591;47.080;22.214;2023-12-07T00:32:57;99477.56;;;6.33;59.63
21803;BME280;18591;47.080;22.214;2023-12-07T00:35:00;99474.03;;;6.31;59.46
21803;BME280;18591;47.080;22.214;2023-12-07T00:37:02;99482.03;;;6.33;59.71
21803;BME280;18591;47.080;22.214;2023-12-07T00:39:06;99477.63;;;6.30;59.48
21803;BME280;18591;47.080;22.214;2023-12-07T00:41:08;99483.84;;;6.31;59.47
21803;BME280;18591;47.080;22.214;2023-12-07T00:43:11;99476.78;;;6.28;59.41
21803;BME280;18591;47.080;22.214;2023-12-07T00:45:14;99483.91;;;6.28;59.48
21803;BME280;18591;47.080;22.214;2023-12-07T00:47:16;99491.00;;;6.29;59.48
21803;BME280;18591;47.080;22.214;2023-12-07T00:49:18;99484.88;;;6.25;59.39
21803;BME280;18591;47.080;22.214;2023-12-07T00:51:21;99484.88;;;6.25;59.63
21803;BME280;18591;47.080;22.214;2023-12-07T00:53:23;99483.06;;;6.26;59.84
21803;BME280;18591;47.080;22.214;2023-12-07T00:55:25;99484.88;;;6.25;59.55
21803;BME280;18591;47.080;22.214;2023-12-07T00:57:27;99473.66;;;6.08;60.19
21803;BME280;18591;47.080;22.214;2023-12-07T00:59:30;99477.03;;;6.16;59.81
21803;BME280;18591;47.080;22.214;2023-12-07T01:01:36;99475.03;;;6.27;59.79
21803;BME280;18591;47.080;22.214;2023-12-07T01:03:40;99473.25;;;6.28;59.49
21803;BME280;18591;47.080;22.214;2023-12-07T01:05:43;99471.44;;;6.28;60.17
21803;BME280;18591;47.080;22.214;2023-12-07T01:07:45;99469.72;;;6.26;59.88
21803;BME280;18591;47.080;22.214;2023-12-07T01:09:47;99473.25;;;6.26;59.68
21803;BME280;18591;47.080;22.214;2023-12-07T01:11:50;99467.13;;;6.23;59.82
21803;BME280;18591;47.080;22.214;2023-12-07T01:13:52;99469.03;;;6.16;60.62
21803;BME280;18591;47.080;22.214;2023-12-07T01:15:55;99459.28;;;6.15;60.64
21803;BME280;18591;47.080;22.214;2023-12-07T01:17:57;99461.94;;;6.17;60.32
21803;BME280;18591;47.080;22.214;2023-12-07T01:23:34;99456.63;;;6.15;60.61
21803;BME280;18591;47.080;22.214;2023-12-07T01:25:36;99462.81;;;6.17;60.59
21803;BME280;18591;47.080;22.214;2023-12-07T01:27:38;99457.41;;;6.20;60.10
21803;BME280;18591;47.080;22.214;2023-12-07T01:29:41;99461.13;;;6.13;60.68
21803;BME280;18591;47.080;22.214;2023-12-07T01:31:43;99453.97;;;6.15;60.71
21803;BME280;18591;47.080;22.214;2023-12-07T01:33:46;99457.66;;;6.09;60.41
21803;BME280;18591;47.080;22.214;2023-12-07T01:35:48;99450.44;;;6.13;60.12
21803;BME280;18591;47.080;22.214;2023-12-07T01:37:50;99453.09;;;6.13;60.50
21803;BME280;18591;47.080;22.214;2023-12-07T01:39:52;99451.28;;;6.15;60.47
21803;BME280;18591;47.080;22.214;2023-12-07T01:41:54;99452.16;;;6.16;60.15
21803;BME280;18591;47.080;22.214;2023-12-07T01:43:57;99448.94;;;6.01;60.84
21803;BME280;18591;47.080;22.214;2023-12-07T01:45:59;99449.94;;;5.93;61.50
21803;BME280;18591;47.080;22.214;2023-12-07T01:48:02;99452.47;;;6.02;61.07
21803;BME280;18591;47.080;22.214;2023-12-07T01:50:05;99448.00;;;6.02;60.98
21803;BME280;18591;47.080;22.214;2023-12-07T01:52:08;99454.22;;;6.03;61.37
21803;BME280;18591;47.080;22.214;2023-12-07T01:54:11;99447.34;;;5.89;61.77
21803;BME280;18591;47.080;22.214;2023-12-07T01:56:13;99445.69;;;5.84;61.89
21803;BME280;18591;47.080;22.214;2023-12-07T01:58:17;99450.97;;;5.85;62.01
21803;BME280;18591;47.080;22.214;2023-12-07T02:00:20;99453.94;;;5.72;62.54
21803;BME280;18591;47.080;22.214;2023-12-07T02:02:23;99450.31;;;5.76;61.98
21803;BME280;18591;47.080;22.214;2023-12-07T02:04:25;99442.16;;;5.83;61.75
21803;BME280;18591;47.080;22.214;2023-12-07T02:06:28;99435.06;;;5.82;61.55
21803;BME280;18591;47.080;22.214;2023-12-07T02:08:30;99444.03;;;5.78;61.83
21803;BME280;18591;47.080;22.214;2023-12-07T02:10:32;99436.97;;;5.76;62.08
21803;BME280;18591;47.080;22.214;2023-12-07T02:12:35;99442.31;;;5.76;62.27
21803;BME280;18591;47.080;22.214;2023-12-07T02:14:38;99434.19;;;5.80;61.99
21803;BME280;18591;47.080;22.214;2023-12-07T02:16:46;99447.81;;;5.68;62.49
21803;BME280;18591;47.080;22.214;2023-12-07T02:18:58;99447.75;;;5.70;62.22
21803;BME280;18591;47.080;22.214;2023-12-07T02:21:11;99445.91;;;5.73;62.28
21803;BME280;18591;47.080;22.214;2023-12-07T02:23:17;99442.31;;;5.76;62.40
21803;BME280;18591;47.080;22.214;2023-12-07T02:28:39;99446.09;;;5.64;63.09
21803;BME280;18591;47.080;22.214;2023-12-07T02:30:42;99440.59;;;5.72;62.09
21803;BME280;18591;47.080;22.214;2023-12-07T02:32:45;99451.19;;;5.76;62.15
21803;BME280;18591;47.080;22.214;2023-12-07T02:34:48;99444.91;;;5.79;61.85
21803;BME280;18591;47.080;22.214;2023-12-07T02:36:52;99459.03;;;5.82;61.86
21803;BME280;18591;47.080;22.214;2023-12-07T02:38:59;99451.97;;;5.81;61.67
21803;BME280;18591;47.080;22.214;2023-12-07T02:41:03;99453.00;;;5.74;62.16
21803;BME280;18591;47.080;22.214;2023-12-07T02:43:07;99454.78;;;5.74;62.36
21803;BME280;18591;47.080;22.214;2023-12-07T02:45:10;99454.75;;;5.75;62.46
21803;BME280;18591;47.080;22.214;2023-12-07T02:47:14;99461.94;;;5.70;62.47
21803;BME280;18591;47.080;22.214;2023-12-07T02:49:16;99458.47;;;5.68;62.18
21803;BME280;18591;47.080;22.214;2023-12-07T02:51:18;99455.75;;;5.70;62.72
21803;BME280;18591;47.080;22.214;2023-12-07T02:53:21;99447.75;;;5.70;62.60
21803;BME280;18591;47.080;22.214;2023-12-07T02:55:23;99457.38;;;5.77;61.84
21803;BME280;18591;47.080;22.214;2023-12-07T02:57:25;99455.66;;;5.74;62.65
21803;BME280;18591;47.080;22.214;2023-12-07T02:59:27;99458.53;;;5.63;62.53
21803;BME280;18591;47.080;22.214;2023-12-07T03:01:30;99457.56;;;5.67;62.81
21803;BME280;18591;47.080;22.214;2023-12-07T03:03:32;99453.94;;;5.72;62.56
21803;BME280;18591;47.080;22.214;2023-12-07T03:05:35;99456.50;;;5.76;62.12
21803;BME280;18591;47.080;22.214;2023-12-07T03:07:37;99461.16;;;5.66;62.51
21803;BME280;18591;47.080;22.214;2023-12-07T03:09:40;99460.06;;;5.77;62.23
21803;BME280;18591;47.080;22.214;2023-12-07T03:11:42;99458.25;;;5.79;62.45
21803;BME280;18591;47.080;22.214;2023-12-07T03:13:44;99461.00;;;5.73;62.65
21803;BME280;18591;47.080;22.214;2023-12-07T03:15:46;99460.97;;;5.76;62.50
21803;BME280;18591;47.080;22.214;2023-12-07T03:17:49;99463.88;;;5.62;63.00
21803;BME280;18591;47.080;22.214;2023-12-07T03:19:52;99463.81;;;5.66;62.65
21803;BME280;18591;47.080;22.214;2023-12-07T03:21:54;99467.47;;;5.61;63.08
21803;BME280;18591;47.080;22.214;2023-12-07T03:23:56;99463.97;;;5.57;62.94
21803;BME280;18591;47.080;22.214;2023-12-07T03:25:59;99466.69;;;5.54;63.36
21803;BME280;18591;47.080;22.214;2023-12-07T03:28:01;99472.03;;;5.54;63.32
21803;BME280;18591;47.080;22.214;2023-12-07T03:30:04;99468.47;;;5.55;63.55
21803;BME280;18591;47.080;22.214;2023-12-07T03:32:06;99479.16;;;5.54;63.22
21803;BME280;18591;47.080;22.214;2023-12-07T03:34:09;99478.34;;;5.50;63.64
21803;BME280;18591;47.080;22.214;2023-12-07T03:36:12;99478.28;;;5.52;63.66
21803;BME280;18591;47.080;22.214;2023-12-07T03:38:14;99477.28;;;5.59;63.17
21803;BME280;18591;47.080;22.214;2023-12-07T03:40:17;99476.50;;;5.52;63.47
21803;BME280;18591;47.080;22.214;2023-12-07T03:42:19;99474.81;;;5.48;63.63
21803;BME280;18591;47.080;22.214;2023-12-07T03:44:41;99470.44;;;5.44;63.81
21803;BME280;18591;47.080;22.214;2023-12-07T03:46:44;99468.66;;;5.44;63.82
21803;BME280;18591;47.080;22.214;2023-12-07T03:48:47;99463.38;;;5.43;64.13
21803;BME280;18591;47.080;22.214;2023-12-07T03:50:49;99478.50;;;5.42;64.38
21803;BME280;18591;47.080;22.214;2023-12-07T03:52:51;99481.22;;;5.38;64.29
21803;BME280;18591;47.080;22.214;2023-12-07T03:54:54;99483.81;;;5.41;64.42
21803;BME280;18591;47.080;22.214;2023-12-07T03:56:56;99484.69;;;5.41;63.71
21803;BME280;18591;47.080;22.214;2023-12-07T03:58:58;99486.50;;;5.41;64.17
21803;BME280;18591;47.080;22.214;2023-12-07T04:01:00;99489.28;;;5.35;64.56
21803;BME280;18591;47.080;22.214;2023-12-07T04:03:03;99483.88;;;5.38;64.11
21803;BME280;18591;47.080;22.214;2023-12-07T04:05:06;99490.16;;;5.35;64.37
21803;BME280;18591;47.080;22.214;2023-12-07T04:07:08;99487.56;;;5.32;64.18
21803;BME280;18591;47.080;22.214;2023-12-07T04:09:10;99481.38;;;5.30;64.54
21803;BME280;18591;47.080;22.214;2023-12-07T04:11:13;99484.09;;;5.26;64.57
21803;BME280;18591;47.080;22.214;2023-12-07T04:13:16;99478.78;;;5.26;65.11
21803;BME280;18591;47.080;22.214;2023-12-07T04:15:43;99482.28;;;5.28;65.24
21803;BME280;18591;47.080;22.214;2023-12-07T04:17:46;99475.97;;;5.33;64.44
21803;BME280;18591;47.080;22.214;2023-12-07T04:19:48;99477.72;;;5.36;64.99
21803;BME280;18591;47.080;22.214;2023-12-07T04:21:51;99481.31;;;5.33;64.50
21803;BME280;18591;47.080;22.214;2023-12-07T04:23:53;99477.09;;;5.21;65.07
21803;BME280;18591;47.080;22.214;2023-12-07T04:25:55;99478.03;;;5.19;65.30
21803;BME280;18591;47.080;22.214;2023-12-07T04:27:59;99482.41;;;5.21;65.35
21803;BME280;18591;47.080;22.214;2023-12-07T04:30:01;99486.75;;;5.26;65.32
21803;BME280;18591;47.080;22.214;2023-12-07T04:32:03;99480.56;;;5.23;65.73
21803;BME280;18591;47.080;22.214;2023-12-07T04:34:08;99480.50;;;5.30;65.53
21803;BME280;18591;47.080;22.214;2023-12-07T04:36:10;99483.03;;;5.34;64.94
21803;BME280;18591;47.080;22.214;2023-12-07T04:38:12;99484.69;;;5.41;64.79
21803;BME280;18591;47.080;22.214;2023-12-07T04:40:15;99481.31;;;5.32;65.66
21803;BME280;18591;47.080;22.214;2023-12-07T04:42:17;99484.69;;;5.41;65.30
21803;BME280;18591;47.080;22.214;2023-12-07T04:44:20;99481.16;;;5.41;65.28
21803;BME280;18591;47.080;22.214;2023-12-07T04:46:22;99482.03;;;5.41;65.36
21803;BME280;18591;47.080;22.214;2023-12-07T04:48:24;99488.09;;;5.51;64.70
21803;BME280;18591;47.080;22.214;2023-12-07T04:50:27;99497.06;;;5.45;65.25
21803;BME280;18591;47.080;22.214;2023-12-07T04:52:30;99494.47;;;5.42;65.62
21803;BME280;18591;47.080;22.214;2023-12-07T04:54:34;99499.75;;;5.45;65.57
21803;BME280;18591;47.080;22.214;2023-12-07T04:56:36;99498.75;;;5.50;64.91
21803;BME280;18591;47.080;22.214;2023-12-07T04:58:39;99502.25;;;5.53;64.87
21803;BME280;18591;47.080;22.214;2023-12-07T05:00:41;99508.41;;;5.57;65.14
21803;BME280;18591;47.080;22.214;2023-12-07T05:02:44;99509.38;;;5.53;65.04
21803;BME280;18591;47.080;22.214;2023-12-07T05:04:46;99501.38;;;5.53;65.31
21803;BME280;18591;47.080;22.214;2023-12-07T05:06:49;99504.88;;;5.55;65.37
21803;BME280;18591;47.080;22.214;2023-12-07T05:08:52;99508.41;;;5.57;65.63
21803;BME280;18591;47.080;22.214;2023-12-07T05:10:57;99512.81;;;5.59;65.69
21803;BME280;18591;47.080;22.214;2023-12-07T05:13:00;99503.16;;;5.52;67.46
21803;BME280;18591;47.080;22.214;2023-12-07T05:15:02;99509.34;;;5.54;66.81
21803;BME280;18591;47.080;22.214;2023-12-07T05:17:06;99509.28;;;5.57;66.48
21803;BME280;18591;47.080;22.214;2023-12-07T05:19:08;99502.06;;;5.64;65.81
21803;BME280;18591;47.080;22.214;2023-12-07T05:21:11;99493.28;;;5.57;67.13
21803;BME280;18591;47.080;22.214;2023-12-07T05:23:13;99497.66;;;5.61;66.25
21803;BME280;18591;47.080;22.214;2023-12-07T05:25:15;99497.75;;;5.57;66.74
21803;BME280;18591;47.080;22.214;2023-12-07T05:27:18;99496.84;;;5.58;66.57
21803;BME280;18591;47.080;22.214;2023-12-07T05:29:20;99501.25;;;5.60;66.36
21803;BME280;18591;47.080;22.214;2023-12-07T05:31:22;99497.72;;;5.58;66.32
21803;BME280;18591;47.080;22.214;2023-12-07T05:33:25;99496.09;;;5.50;66.44
21803;BME280;18591;47.080;22.214;2023-12-07T05:35:27;99503.13;;;5.54;66.48
21803;BME280;18591;47.080;22.214;2023-12-07T05:37:29;99501.38;;;5.53;66.36
21803;BME280;18591;47.080;22.214;2023-12-07T05:39:32;99504.00;;;5.54;66.09
21803;BME280;18591;47.080;22.214;2023-12-07T05:41:34;99508.41;;;5.57;65.93
21803;BME280;18591;47.080;22.214;2023-12-07T05:43:36;99503.16;;;5.52;66.42
21803;BME280;18591;47.080;22.214;2023-12-07T05:45:39;99504.09;;;5.50;66.01
21803;BME280;18591;47.080;22.214;2023-12-07T05:47:42;99507.78;;;5.42;66.27
21803;BME280;18591;47.080;22.214;2023-12-07T05:49:45;99509.56;;;5.42;66.44
21803;BME280;18591;47.080;22.214;2023-12-07T05:51:47;99512.13;;;5.48;65.94
21803;BME280;18591;47.080;22.214;2023-12-07T05:53:49;99514.94;;;5.40;66.26
21803;BME280;18591;47.080;22.214;2023-12-07T05:55:51;99513.25;;;5.35;66.97
21803;BME280;18591;47.080;22.214;2023-12-07T05:57:54;99520.22;;;5.42;66.17
21803;BME280;18591;47.080;22.214;2023-12-07T05:59:56;99525.53;;;5.42;66.63
21803;BME280;18591;47.080;22.214;2023-12-07T06:01:58;99518.53;;;5.36;66.72
21803;BME280;18591;47.080;22.214;2023-12-07T06:04:01;99523.13;;;5.28;67.08
21803;BME280;18591;47.080;22.214;2023-12-07T06:06:04;99528.31;;;5.37;66.61
21803;BME280;18591;47.080;22.214;2023-12-07T06:08:07;99530.84;;;5.43;66.03
21803;BME280;18591;47.080;22.214;2023-12-07T06:10:10;99536.25;;;5.39;66.68
21803;BME280;18591;47.080;22.214;2023-12-07T06:12:13;99536.13;;;5.46;65.63
21803;BME280;18591;47.080;22.214;2023-12-07T06:14:15;99535.31;;;5.43;66.21
21803;BME280;18591;47.080;22.214;2023-12-07T06:16:17;99542.38;;;5.44;66.34
21803;BME280;18591;47.080;22.214;2023-12-07T06:18:20;99538.72;;;5.51;66.37
21803;BME280;18591;47.080;22.214;2023-12-07T06:20:23;99546.81;;;5.45;66.82
21803;BME280;18591;47.080;22.214;2023-12-07T06:22:25;99548.56;;;5.46;66.38
21803;BME280;18591;47.080;22.214;2023-12-07T06:24:52;99545.03;;;5.45;67.45
21803;BME280;18591;47.080;22.214;2023-12-07T06:26:55;99547.50;;;5.56;66.34
21803;BME280;18591;47.080;22.214;2023-12-07T06:28:57;99546.69;;;5.53;66.48
21803;BME280;18591;47.080;22.214;2023-12-07T06:31:05;99539.56;;;5.53;66.45
21803;BME280;18591;47.080;22.214;2023-12-07T06:33:10;99548.56;;;5.46;66.82
21803;BME280;18591;47.080;22.214;2023-12-07T06:35:13;99552.03;;;5.51;66.27
21803;BME280;18591;47.080;22.214;2023-12-07T06:37:15;99558.19;;;5.55;66.32
21803;BME280;18591;47.080;22.214;2023-12-07T06:39:19;99564.44;;;5.54;66.08
21803;BME280;18591;47.080;22.214;2023-12-07T06:41:21;99555.56;;;5.52;66.51
21803;BME280;18591;47.080;22.214;2023-12-07T06:43:23;99566.22;;;5.53;66.33
21803;BME280;18591;47.080;22.214;2023-12-07T06:45:26;99557.22;;;5.59;66.11
21803;BME280;18591;47.080;22.214;2023-12-07T06:47:28;99567.22;;;5.48;66.58
21803;BME280;18591;47.080;22.214;2023-12-07T06:49:30;99567.81;;;5.63;65.92
21803;BME280;18591;47.080;22.214;2023-12-07T06:51:50;99563.38;;;5.64;65.68
21803;BME280;18591;47.080;22.214;2023-12-07T06:53:53;99573.03;;;5.70;65.94
21803;BME280;18591;47.080;22.214;2023-12-07T06:55:55;99572.22;;;5.66;65.77
21803;BME280;18591;47.080;22.214;2023-12-07T06:57:57;99568.63;;;5.67;65.64
21803;BME280;18591;47.080;22.214;2023-12-07T06:59:59;99580.22;;;5.64;65.62
21803;BME280;18591;47.080;22.214;2023-12-07T07:02:03;99564.16;;;5.67;65.88
21803;BME280;18591;47.080;22.214;2023-12-07T07:04:06;99570.41;;;5.66;66.03
21803;BME280;18591;47.080;22.214;2023-12-07T07:06:08;99583.94;;;5.56;66.49
21803;BME280;18591;47.080;22.214;2023-12-07T07:08:10;99572.22;;;5.66;65.90
21803;BME280;18591;47.080;22.214;2023-12-07T07:10:12;99581.88;;;5.72;65.59
21803;BME280;18591;47.080;22.214;2023-12-07T07:12:15;99587.34;;;5.65;66.34
21803;BME280;18591;47.080;22.214;2023-12-07T07:14:17;99583.75;;;5.68;66.02
21803;BME280;18591;47.080;22.214;2023-12-07T07:16:20;99584.47;;;5.76;66.17
21803;BME280;18591;47.080;22.214;2023-12-07T07:18:22;99583.75;;;5.65;66.86
21803;BME280;18591;47.080;22.214;2023-12-07T07:20:26;99588.03;;;5.75;65.87
21803;BME280;18591;47.080;22.214;2023-12-07T07:22:28;99594.22;;;5.77;66.24
21803;BME280;18591;47.080;22.214;2023-12-07T07:24:31;99588.00;;;5.78;66.27
21803;BME280;18591;47.080;22.214;2023-12-07T07:26:33;99598.59;;;5.81;66.18
21803;BME280;18591;47.080;22.214;2023-12-07T07:28:35;99598.53;;;5.84;65.77
21803;BME280;18591;47.080;22.214;2023-12-07T07:30:38;99596.06;;;5.74;66.54
21803;BME280;18591;47.080;22.214;2023-12-07T07:32:40;99594.22;;;5.77;66.26
21803;BME280;18591;47.080;22.214;2023-12-07T07:34:43;99608.41;;;5.79;66.13
21803;BME280;18591;47.080;22.214;2023-12-07T07:36:45;99609.41;;;5.72;66.45
21803;BME280;18591;47.080;22.214;2023-12-07T07:38:48;99611.06;;;5.79;65.74
21803;BME280;18591;47.080;22.214;2023-12-07T07:40:50;99613.66;;;5.84;65.97
21803;BME280;18591;47.080;22.214;2023-12-07T07:42:52;99613.25;;;5.56;67.17
21803;BME280;18591;47.080;22.214;2023-12-07T07:44:55;99619.19;;;5.72;66.00
21803;BME280;18591;47.080;22.214;2023-12-07T07:46:57;99618.28;;;5.74;66.15
21803;BME280;18591;47.080;22.214;2023-12-07T07:48:59;99618.28;;;5.74;66.04
21803;BME280;18591;47.080;22.214;2023-12-07T07:51:02;99613.78;;;5.76;65.99
21803;BME280;18591;47.080;22.214;2023-12-07T07:53:05;99612.00;;;5.77;65.87
21803;BME280;18591;47.080;22.214;2023-12-07T07:55:07;99612.81;;;5.80;65.81
21803;BME280;18591;47.080;22.214;2023-12-07T07:57:09;99611.19;;;5.72;66.17
21803;BME280;18591;47.080;22.214;2023-12-07T07:59:12;99616.47;;;5.75;66.15
21803;BME280;18591;47.080;22.214;2023-12-07T08:01:14;99619.19;;;5.72;66.35
21803;BME280;18591;47.080;22.214;2023-12-07T08:03:17;99625.41;;;5.74;66.13
21803;BME280;18591;47.080;22.214;2023-12-07T08:05:19;99614.59;;;5.81;65.87
21803;BME280;18591;47.080;22.214;2023-12-07T08:07:22;99620.81;;;5.80;65.84
21803;BME280;18591;47.080;22.214;2023-12-07T08:09:24;99626.28;;;5.73;66.72
21803;BME280;18591;47.080;22.214;2023-12-07T08:11:27;99616.41;;;5.78;65.98
21803;BME280;18591;47.080;22.214;2023-12-07T08:13:31;99629.72;;;5.79;66.82
21803;BME280;18591;47.080;22.214;2023-12-07T08:15:34;99634.19;;;5.77;66.15
21803;BME280;18591;47.080;22.214;2023-12-07T08:17:59;99632.38;;;5.81;66.45
21803;BME280;18591;47.080;22.214;2023-12-07T08:20:02;99630.53;;;5.83;66.08
21803;BME280;18591;47.080;22.214;2023-12-07T08:22:05;99637.63;;;5.85;65.83
21803;BME280;18591;47.080;22.214;2023-12-07T08:24:07;99636.84;;;5.79;66.14
21803;BME280;18591;47.080;22.214;2023-12-07T08:26:10;99644.81;;;5.80;65.94
21803;BME280;18591;47.080;22.214;2023-12-07T08:28:12;99642.13;;;5.83;66.28
21803;BME280;18591;47.080;22.214;2023-12-07T08:30:15;99644.72;;;5.86;65.80
21803;BME280;18591;47.080;22.214;2023-12-07T08:32:18;99643.13;;;5.76;66.24
21803;BME280;18591;47.080;22.214;2023-12-07T08:34:21;99643.06;;;5.81;65.72
21803;BME280;18591;47.080;22.214;2023-12-07T08:36:25;99645.72;;;5.81;66.30
21803;BME280;18591;47.080;22.214;2023-12-07T08:38:27;99647.47;;;5.82;66.09
21803;BME280;18591;47.080;22.214;2023-12-07T08:40:29;99657.19;;;5.84;65.93
21803;BME280;18591;47.080;22.214;2023-12-07T08:42:31;99653.66;;;5.84;65.93
21803;BME280;18591;47.080;22.214;2023-12-07T08:44:34;99655.44;;;5.83;65.74
21803;BME280;18591;47.080;22.214;2023-12-07T08:46:36;99651.88;;;5.84;65.57
21803;BME280;18591;47.080;22.214;2023-12-07T08:48:41;99655.41;;;5.85;65.96
21803;BME280;18591;47.080;22.214;2023-12-07T08:50:45;99656.31;;;5.84;65.91
21803;BME280;18591;47.080;22.214;2023-12-07T08:52:47;99657.25;;;5.81;66.05
21803;BME280;18591;47.080;22.214;2023-12-07T08:54:57;99661.66;;;5.84;65.81
21803;BME280;18591;47.080;22.214;2023-12-07T08:56:59;99660.88;;;5.77;66.58
21803;BME280;18591;47.080;22.214;2023-12-07T08:59:02;99660.78;;;5.83;65.93
21803;BME280;18591;47.080;22.214;2023-12-07T09:01:04;99666.25;;;5.76;66.22
21803;BME280;18591;47.080;22.214;2023-12-07T09:03:34;99659.88;;;5.84;65.82
21803;BME280;18591;47.080;22.214;2023-12-07T09:05:36;99664.25;;;5.87;65.77
21803;BME280;18591;47.080;22.214;2023-12-07T09:07:38;99672.47;;;5.75;66.07
21803;BME280;18591;47.080;22.214;2023-12-07T09:09:41;99675.19;;;5.70;66.30
21803;BME280;18591;47.080;22.214;2023-12-07T09:11:49;99671.44;;;5.83;65.91
21803;BME280;18591;47.080;22.214;2023-12-07T09:13:51;99669.53;;;5.90;65.71
21803;BME280;18591;47.080;22.214;2023-12-07T09:15:53;99666.94;;;5.87;65.65
21803;BME280;18591;47.080;22.214;2023-12-07T09:17:55;99667.81;;;5.87;65.63
21803;BME280;18591;47.080;22.214;2023-12-07T09:19:58;99662.47;;;5.87;65.72
21803;BME280;18591;47.080;22.214;2023-12-07T09:22:00;99661.53;;;5.92;65.37
21803;BME280;18591;47.080;22.214;2023-12-07T09:24:03;99665.13;;;5.87;65.60
21803;BME280;18591;47.080;22.214;2023-12-07T09:26:05;99660.63;;;5.94;65.22
21803;BME280;18591;47.080;22.214;2023-12-07T09:28:08;99658.94;;;5.85;65.52
21803;BME280;18591;47.080;22.214;2023-12-07T09:30:11;99657.22;;;5.83;65.77
21803;BME280;18591;47.080;22.214;2023-12-07T09:32:14;99649.13;;;5.89;65.56
21803;BME280;18591;47.080;22.214;2023-12-07T09:34:18;99649.19;;;5.84;65.92
21803;BME280;18591;47.080;22.214;2023-12-07T09:36:20;99653.59;;;5.88;65.71
21803;BME280;18591;47.080;22.214;2023-12-07T09:38:26;99653.59;;;5.88;65.49
21803;BME280;18591;47.080;22.214;2023-12-07T09:40:29;99652.72;;;5.86;65.61
21803;BME280;18591;47.080;22.214;2023-12-07T09:42:33;99650.94;;;5.87;65.79
21803;BME280;18591;47.080;22.214;2023-12-07T09:44:38;99651.72;;;5.92;65.74
21803;BME280;18591;47.080;22.214;2023-12-07T09:46:40;99646.66;;;5.78;66.35
21803;BME280;18591;47.080;22.214;2023-12-07T09:48:43;99649.28;;;5.80;66.65
21803;BME280;18591;47.080;22.214;2023-12-07T09:50:47;99649.09;;;5.94;65.70
21803;BME280;18591;47.080;22.214;2023-12-07T09:52:52;99645.47;;;5.96;65.70
21803;BME280;18591;47.080;22.214;2023-12-07T09:55:08;99647.28;;;5.94;66.02
21803;BME280;18591;47.080;22.214;2023-12-07T09:57:11;99643.75;;;5.94;66.05
21803;BME280;18591;47.080;22.214;2023-12-07T09:59:13;99645.50;;;5.95;65.43
21803;BME280;18591;47.080;22.214;2023-12-07T10:01:16;99650.81;;;5.93;65.89
21803;BME280;18591;47.080;22.214;2023-12-07T10:03:22;99646.34;;;5.97;65.66
21803;BME280;18591;47.080;22.214;2023-12-07T10:05:25;99649.03;;;5.95;66.21
21803;BME280;18591;47.080;22.214;2023-12-07T10:07:34;99649.81;;;6.02;65.65
21803;BME280;18591;47.080;22.214;2023-12-07T10:09:41;99642.63;;;6.05;65.49
21803;BME280;18591;47.080;22.214;2023-12-07T10:11:44;99640.84;;;6.06;65.52
21803;BME280;18591;47.080;22.214;2023-12-07T10:13:46;99647.09;;;6.05;65.82
21803;BME280;18591;47.080;22.214;2023-12-07T10:16:05;99643.63;;;6.00;65.80
21803;BME280;18591;47.080;22.214;2023-12-07T10:18:08;99643.50;;;6.07;65.58
21803;BME280;18591;47.080;22.214;2023-12-07T10:20:11;99641.69;;;6.09;65.64
21803;BME280;18591;47.080;22.214;2023-12-07T10:22:14;99644.31;;;6.11;65.49
21803;BME280;18591;47.080;22.214;2023-12-07T10:24:21;99637.16;;;6.13;65.28
21803;BME280;18591;47.080;22.214;2023-12-07T10:26:24;99636.22;;;6.16;64.88
21803;BME280;18591;47.080;22.214;2023-12-07T10:28:26;99644.22;;;6.16;65.09
21803;BME280;18591;47.080;22.214;2023-12-07T10:30:29;99644.31;;;6.11;65.04
21803;BME280;18591;47.080;22.214;2023-12-07T10:32:31;99635.69;;;5.97;65.66
21803;BME280;18591;47.080;22.214;2023-12-07T10:34:33;99638.13;;;6.09;65.13
21803;BME280;18591;47.080;22.214;2023-12-07T10:36:38;99636.34;;;6.09;65.49
21803;BME280;18591;47.080;22.214;2023-12-07T10:38:43;99642.56;;;6.08;65.29
21803;BME280;18591;47.080;22.214;2023-12-07T10:40:50;99637.47;;;5.96;65.82
21803;BME280;18591;47.080;22.214;2023-12-07T10:43:05;99640.16;;;5.96;66.30
21803;BME280;18591;47.080;22.214;2023-12-07T10:45:08;99638.16;;;6.07;65.40
21803;BME280;18591;47.080;22.214;2023-12-07T10:47:12;99638.94;;;6.13;65.27
21803;BME280;18591;47.080;22.214;2023-12-07T10:49:18;99642.63;;;6.05;65.41
21803;BME280;18591;47.080;22.214;2023-12-07T10:51:45;99645.25;;;6.08;65.33
21803;BME280;18591;47.080;22.214;2023-12-07T10:53:48;99633.59;;;6.14;65.16
21803;BME280;18591;47.080;22.214;2023-12-07T10:55:55;99637.09;;;6.16;65.02
21803;BME280;18591;47.080;22.214;2023-12-07T10:57:59;99635.28;;;6.18;64.69
21803;BME280;18591;47.080;22.214;2023-12-07T11:00:03;99631.75;;;6.18;65.19